createdAt,value
2022-08-05T00:01:35.582Z,73.20
2022-08-05T00:04:08.217Z,73.00
2022-08-05T00:06:36.736Z,73.20
2022-08-05T00:09:12.952Z,73.70
2022-08-05T00:11:49.023Z,73.80
2022-08-05T00:14:17.958Z,73.60
2022-08-05T00:16:53.060Z,73.80
2022-08-05T00:19:22.701Z,74.20
2022-08-05T00:21:54.105Z,74.40
2022-08-05T00:24:24.868Z,74.30
2022-08-05T00:27:01.097Z,74.70
2022-08-05T00:29:37.963Z,75.00
2022-08-05T00:32:11.206Z,74.70
2022-08-05T00:34:54.816Z,74.70
2022-08-05T00:37:35.762Z,74.90
2022-08-05T00:40:27.407Z,74.90
2022-08-05T00:43:00.033Z,75.20
2022-08-05T00:45:38.905Z,75.50
2022-08-05T00:48:12.172Z,75.30
2022-08-05T00:50:44.071Z,75.20
2022-08-05T00:54:00.276Z,75.70
2022-08-05T00:56:01.343Z,75.70
2022-08-05T00:58:30.785Z,75.90
2022-08-05T01:00:59.105Z,76.00
2022-08-05T01:03:33.463Z,76.40
2022-08-05T01:06:02.652Z,76.40
2022-08-05T01:08:43.401Z,76.30
2022-08-05T01:11:22.726Z,76.90
2022-08-05T01:14:15.338Z,76.70
2022-08-05T01:16:49.865Z,76.80
2022-08-05T01:19:56.621Z,76.80
2022-08-05T01:22:38.714Z,77.10
2022-08-05T01:25:39.845Z,77.50
2022-08-05T01:28:22.131Z,77.60
2022-08-05T01:30:55.665Z,77.40
2022-08-05T01:33:29.528Z,77.30
2022-08-05T01:36:13.001Z,77.80
2022-08-05T01:38:42.008Z,77.50
2022-08-05T01:41:13.914Z,77.50
2022-08-05T01:43:44.734Z,77.70
2022-08-05T01:46:41.512Z,78.00
2022-08-05T01:49:22.906Z,78.00
2022-08-05T01:51:58.467Z,78.00
2022-08-05T01:54:31.331Z,78.40
2022-08-05T01:58:09.880Z,78.50
2022-08-05T01:59:53.599Z,78.70
2022-08-05T02:02:28.411Z,78.70
2022-08-05T02:05:03.113Z,78.80
2022-08-05T02:07:32.330Z,79.20
2022-08-05T02:10:02.483Z,79.40
2022-08-05T02:12:37.866Z,79.70
2022-08-05T02:15:13.595Z,80.00
2022-08-05T02:18:32.054Z,80.40
2022-08-05T02:20:49.348Z,80.50
2022-08-05T02:23:22.320Z,81.10
2022-08-05T02:25:52.234Z,80.90
2022-08-05T02:28:28.340Z,80.90
2022-08-05T02:31:04.388Z,80.90
2022-08-05T02:33:42.070Z,81.10
2022-08-05T02:36:15.672Z,81.30
2022-08-05T02:38:52.796Z,81.50
2022-08-05T02:41:23.776Z,81.90
2022-08-05T02:44:02.596Z,82.00
2022-08-05T02:46:53.463Z,82.30
2022-08-05T02:49:27.605Z,82.40
2022-08-05T02:52:08.765Z,82.60
2022-08-05T02:54:41.016Z,83.10
2022-08-05T02:58:10.568Z,83.00
2022-08-05T03:00:01.319Z,83.00
2022-08-05T03:02:35.653Z,83.50
2022-08-05T03:05:05.220Z,82.40
2022-08-05T03:08:00.192Z,82.20
2022-08-05T03:10:25.179Z,81.70
2022-08-05T03:12:54.996Z,81.50
2022-08-05T03:15:24.456Z,81.50
2022-08-05T03:17:57.566Z,82.20
2022-08-05T03:20:26.403Z,82.70
2022-08-05T03:22:57.682Z,82.50
2022-08-05T03:26:02.622Z,82.60
2022-08-05T03:28:18.770Z,82.50
2022-08-05T03:30:49.564Z,82.40
2022-08-05T03:33:20.434Z,82.50
2022-08-05T03:35:51.744Z,82.50
2022-08-05T03:38:32.862Z,82.40
2022-08-05T03:41:08.296Z,82.70
2022-08-05T03:44:08.756Z,82.90
2022-08-05T03:46:29.697Z,83.00
2022-08-05T03:49:02.140Z,83.00
2022-08-05T03:52:38.978Z,83.10
2022-08-05T03:55:50.220Z,83.00
2022-08-05T03:57:41.150Z,83.10
2022-08-05T04:00:15.916Z,83.60
2022-08-05T04:02:52.052Z,84.00
2022-08-05T04:05:33.795Z,84.20
2022-08-05T04:08:05.795Z,84.40
2022-08-05T04:10:44.859Z,85.00
2022-08-05T04:13:13.367Z,85.20
2022-08-05T04:16:02.689Z,85.50
2022-08-05T04:18:30.159Z,85.50
2022-08-05T04:21:00.048Z,85.60
2022-08-05T04:24:04.860Z,85.60
2022-08-05T04:26:18.422Z,86.00
2022-08-05T04:28:51.249Z,85.50
2022-08-05T04:31:20.494Z,85.60
2022-08-05T04:34:17.623Z,85.70
2022-08-05T04:36:46.054Z,85.60
2022-08-05T04:39:18.201Z,85.90
2022-08-05T04:41:48.182Z,85.80
2022-08-05T04:44:29.573Z,85.90
2022-08-05T04:46:59.040Z,85.60
2022-08-05T04:49:39.315Z,85.60
2022-08-05T04:52:17.410Z,85.80
2022-08-05T04:54:46.866Z,85.90
2022-08-05T04:57:17.803Z,85.70
2022-08-05T04:59:48.112Z,85.80
2022-08-05T05:02:41.589Z,85.80
2022-08-05T05:05:16.681Z,85.80
2022-08-05T05:07:56.419Z,85.80
2022-08-05T05:10:29.580Z,85.60
2022-08-05T05:12:58.597Z,85.70
2022-08-05T05:15:57.418Z,85.80
2022-08-05T05:18:16.587Z,85.50
2022-08-05T05:20:59.461Z,85.60
2022-08-05T05:24:02.398Z,85.50
2022-08-05T05:26:18.464Z,85.90
2022-08-05T05:28:46.639Z,85.70
2022-08-05T05:31:14.896Z,85.60
2022-08-05T05:34:01.744Z,85.40
2022-08-05T05:36:31.430Z,85.40
2022-08-05T05:39:03.852Z,85.10
2022-08-05T05:41:40.554Z,85.00
2022-08-05T05:44:35.920Z,85.00
2022-08-05T05:47:04.322Z,84.70
2022-08-05T05:49:33.337Z,84.50
2022-08-05T05:52:05.911Z,84.50
2022-08-05T05:54:50.374Z,84.30
2022-08-05T05:57:19.836Z,83.90
2022-08-05T05:59:48.701Z,83.70
2022-08-05T06:02:16.898Z,83.10
2022-08-05T06:04:49.315Z,83.00
2022-08-05T06:07:17.620Z,82.40
2022-08-05T06:10:01.417Z,81.90
2022-08-05T06:12:34.847Z,81.70
2022-08-05T06:15:23.726Z,81.20
2022-08-05T06:17:54.545Z,80.70
2022-08-05T06:20:23.183Z,80.00
2022-08-05T06:22:51.298Z,79.60
2022-08-05T06:25:25.288Z,78.60
2022-08-05T06:28:20.791Z,78.70
2022-08-05T06:30:49.801Z,78.00
2022-08-05T06:33:19.335Z,78.00
2022-08-05T06:36:05.812Z,77.30
2022-08-05T06:38:37.061Z,77.40
2022-08-05T06:41:07.959Z,77.00
2022-08-05T06:43:59.693Z,76.50
2022-08-05T06:46:29.718Z,76.60
2022-08-05T06:48:59.675Z,75.80
2022-08-05T06:51:30.029Z,76.10
2022-08-05T06:53:59.798Z,73.80
2022-08-05T06:56:29.648Z,73.60
2022-08-05T06:58:57.868Z,73.10
2022-08-05T07:01:31.989Z,70.00
2022-08-05T07:04:02.405Z,69.30
2022-08-05T07:06:32.084Z,68.40
2022-08-05T07:09:04.271Z,69.90
2022-08-05T07:11:37.317Z,68.20
2022-08-05T07:14:29.471Z,67.80
2022-08-05T07:18:08.338Z,67.00
2022-08-05T07:20:31.388Z,66.80
2022-08-05T07:22:39.861Z,65.90
2022-08-05T07:25:22.382Z,65.80
2022-08-05T07:27:59.515Z,65.70
2022-08-05T07:30:33.943Z,66.10
2022-08-05T07:33:05.132Z,65.80
2022-08-05T07:36:01.433Z,64.20
2022-08-05T07:38:32.739Z,64.10
2022-08-05T07:41:34.980Z,63.80
2022-08-05T07:43:56.172Z,63.00
2022-08-05T07:46:26.399Z,62.70
2022-08-05T07:49:01.428Z,62.60
2022-08-05T07:51:40.611Z,62.10
2022-08-05T07:54:10.524Z,61.40
2022-08-05T07:57:02.934Z,60.80
2022-08-05T07:59:38.840Z,60.50
2022-08-05T08:02:15.403Z,60.90
2022-08-05T08:04:47.345Z,60.70
2022-08-05T08:07:15.891Z,60.20
2022-08-05T08:09:44.331Z,60.40
2022-08-05T08:12:35.287Z,60.00
2022-08-05T08:15:04.314Z,59.30
2022-08-05T08:17:33.129Z,59.30
2022-08-05T08:20:21.108Z,58.90
2022-08-05T08:22:55.618Z,59.20
2022-08-05T08:25:26.748Z,58.20
2022-08-05T08:28:18.213Z,58.20
2022-08-05T08:31:02.647Z,57.50
2022-08-05T08:33:37.842Z,57.60
2022-08-05T08:38:56.989Z,56.20
2022-08-05T08:41:51.324Z,56.30
2022-08-05T08:45:19.920Z,56.10
2022-08-05T08:47:47.590Z,54.80
2022-08-05T08:50:14.663Z,53.30
2022-08-05T08:52:52.917Z,53.20
2022-08-05T08:56:02.137Z,53.40
2022-08-05T08:58:12.931Z,53.00
2022-08-05T09:00:44.490Z,52.60
2022-08-05T09:03:16.265Z,52.60
2022-08-05T09:06:08.038Z,52.40
2022-08-05T09:08:40.483Z,52.40
2022-08-05T09:11:13.723Z,52.10
2022-08-05T09:14:10.133Z,52.40
2022-08-05T09:16:32.213Z,51.00
2022-08-05T09:19:01.593Z,51.00
2022-08-05T09:22:23.519Z,50.00
2022-08-05T09:24:24.241Z,50.30
2022-08-05T09:26:54.130Z,50.50
2022-08-05T09:29:30.970Z,49.40
2022-08-05T09:32:40.772Z,49.50
2022-08-05T09:34:55.337Z,48.70
2022-08-05T09:38:12.071Z,49.30
2022-08-05T09:40:30.679Z,49.00
2022-08-05T09:43:01.229Z,48.90
2022-08-05T09:46:07.137Z,48.50
2022-08-05T09:48:31.372Z,48.30
2022-08-05T09:51:03.234Z,48.80
2022-08-05T09:53:53.979Z,48.40
2022-08-05T09:56:27.476Z,48.30
2022-08-05T09:59:00.152Z,48.60
2022-08-05T10:01:31.764Z,48.30
2022-08-05T10:04:04.476Z,48.80
2022-08-05T10:06:54.704Z,48.00
2022-08-05T10:09:29.678Z,47.70
2022-08-05T10:12:30.693Z,48.20
2022-08-05T10:15:16.209Z,48.10
2022-08-05T10:18:02.685Z,47.70
2022-08-05T10:20:32.635Z,47.50
2022-08-05T10:23:03.528Z,47.50
2022-08-05T10:25:32.122Z,47.40
2022-08-05T10:28:13.910Z,47.70
2022-08-05T10:32:52.142Z,47.40
2022-08-05T10:33:37.170Z,47.20
2022-08-05T10:36:08.266Z,47.50
2022-08-05T10:38:38.567Z,47.60
2022-08-05T10:41:23.419Z,46.90
2022-08-05T10:43:59.302Z,47.50
2022-08-05T10:46:45.673Z,47.60
2022-08-05T10:49:16.768Z,44.70
2022-08-05T10:51:48.609Z,43.20
2022-08-05T10:55:02.857Z,43.00
2022-08-05T10:57:33.648Z,43.80
2022-08-05T11:00:19.274Z,43.40
2022-08-05T11:03:25.082Z,43.70
2022-08-05T11:06:15.692Z,43.90
2022-08-05T11:09:31.941Z,43.30
2022-08-05T11:12:50.444Z,42.20
2022-08-05T11:15:59.546Z,41.90
2022-08-05T11:18:29.728Z,41.40
2022-08-05T11:20:59.117Z,41.80
2022-08-05T11:23:33.189Z,42.20
2022-08-05T11:26:09.246Z,42.10
2022-08-05T11:28:48.416Z,42.10
2022-08-05T11:31:57.877Z,41.80
2022-08-05T11:34:37.592Z,42.00
2022-08-05T11:38:36.741Z,42.00
2022-08-05T11:40:00.456Z,41.90
2022-08-05T11:42:37.898Z,42.10
2022-08-05T11:45:23.166Z,41.90
2022-08-05T11:47:59.377Z,41.90
2022-08-05T11:50:28.538Z,41.10
2022-08-05T11:52:58.244Z,42.10
2022-08-05T11:55:31.961Z,41.80
2022-08-05T11:58:09.265Z,41.90
2022-08-05T12:00:44.492Z,41.90
2022-08-05T12:03:23.832Z,41.10
2022-08-05T12:06:06.592Z,41.00
2022-08-05T12:08:51.140Z,41.40
2022-08-05T12:11:21.516Z,41.40
2022-08-05T12:13:59.386Z,41.20
2022-08-05T12:16:38.519Z,41.20
2022-08-05T12:19:08.743Z,41.70
2022-08-05T12:21:43.498Z,40.20
2022-08-05T12:24:17.267Z,41.00
2022-08-05T12:26:47.806Z,40.30
2022-08-05T12:29:22.496Z,40.20
2022-08-05T12:31:54.625Z,40.20
2022-08-05T12:34:28.379Z,40.10
2022-08-05T12:36:58.352Z,39.60
2022-08-05T12:39:34.622Z,39.50
2022-08-05T12:42:14.306Z,39.30
2022-08-05T12:44:44.458Z,38.10
2022-08-05T12:47:17.275Z,38.20
2022-08-05T12:50:03.753Z,37.70
2022-08-05T12:52:39.507Z,38.20
2022-08-05T12:55:26.276Z,38.40
2022-08-05T12:58:38.291Z,38.20
2022-08-05T13:02:04.263Z,38.20
2022-08-05T13:03:41.553Z,38.60
2022-08-05T13:06:16.160Z,37.70
2022-08-05T13:08:50.900Z,38.30
2022-08-05T13:11:25.308Z,38.40
2022-08-05T13:14:24.625Z,38.20
2022-08-05T13:17:08.804Z,37.50
2022-08-05T13:19:52.074Z,37.60
2022-08-05T13:22:29.255Z,37.60
2022-08-05T13:25:00.597Z,36.90
2022-08-05T13:27:37.496Z,36.60
2022-08-05T13:30:34.837Z,36.50
2022-08-05T13:32:57.465Z,36.60
2022-08-05T13:35:47.330Z,36.40
2022-08-05T13:38:30.552Z,36.60
2022-08-05T13:41:04.894Z,36.50
2022-08-05T13:43:44.853Z,35.90
2022-08-05T13:47:01.697Z,36.00
2022-08-05T13:49:11.857Z,36.00
2022-08-05T13:51:46.051Z,36.00
2022-08-05T13:54:16.112Z,34.90
2022-08-05T13:56:50.797Z,34.20
2022-08-05T13:59:21.443Z,33.20
2022-08-05T14:01:58.524Z,32.70
2022-08-05T14:04:49.818Z,31.50
2022-08-05T14:07:25.689Z,30.90
2022-08-05T14:10:12.195Z,30.80
2022-08-05T14:12:42.637Z,29.90
2022-08-05T14:16:05.955Z,29.80
2022-08-05T14:18:01.558Z,29.30
2022-08-05T14:20:32.528Z,28.70
2022-08-05T14:23:02.568Z,28.60
2022-08-05T14:25:30.819Z,28.80
2022-08-05T14:27:59.099Z,28.80
2022-08-05T14:30:28.334Z,28.70
2022-08-05T14:32:58.863Z,28.70
2022-08-05T14:35:37.543Z,28.50
2022-08-05T14:38:32.267Z,28.50
2022-08-05T14:41:05.965Z,28.60
2022-08-05T14:44:01.539Z,28.00
2022-08-05T14:46:29.156Z,28.00
2022-08-05T14:49:07.000Z,28.40
2022-08-05T14:51:37.524Z,28.40
2022-08-05T14:54:27.689Z,28.50
2022-08-05T14:56:56.657Z,28.70
2022-08-05T14:59:25.462Z,29.10
2022-08-05T15:01:58.181Z,29.40
2022-08-05T15:04:27.428Z,29.40
2022-08-05T15:06:57.352Z,29.70
2022-08-05T15:09:51.817Z,29.50
2022-08-05T15:12:27.052Z,29.40
2022-08-05T15:14:56.096Z,29.60
2022-08-05T15:17:45.634Z,30.10
2022-08-05T15:20:18.217Z,30.80
2022-08-05T15:22:54.199Z,31.00
2022-08-05T15:25:40.905Z,32.20
2022-08-05T15:28:15.478Z,32.50
2022-08-05T15:30:45.566Z,32.80
2022-08-05T15:33:53.718Z,33.60
2022-08-05T15:36:03.943Z,33.80
2022-08-05T15:38:36.534Z,33.50
2022-08-05T15:41:21.833Z,33.50
2022-08-05T15:43:51.851Z,33.70
2022-08-05T15:46:24.361Z,33.40
2022-08-05T15:49:00.602Z,32.90
2022-08-05T15:52:13.741Z,32.80
2022-08-05T15:54:34.927Z,33.60
2022-08-05T15:57:07.332Z,32.90
2022-08-05T15:59:38.226Z,33.50
2022-08-05T16:02:09.179Z,34.20
2022-08-05T16:04:38.023Z,34.10
2022-08-05T16:07:10.809Z,34.00
2022-08-05T16:09:41.827Z,34.00
2022-08-05T16:12:11.729Z,34.50
2022-08-05T16:14:40.261Z,34.60
2022-08-05T16:17:09.512Z,34.70
2022-08-05T16:20:04.198Z,34.50
2022-08-05T16:22:27.856Z,34.50
2022-08-05T16:25:05.265Z,34.70
2022-08-05T16:28:00.872Z,35.20
2022-08-05T16:30:28.930Z,35.40
2022-08-05T16:32:57.815Z,35.70
2022-08-05T16:35:28.637Z,35.80
2022-08-05T16:38:15.126Z,36.10
2022-08-05T16:40:55.802Z,36.20
2022-08-05T16:43:31.380Z,36.20
2022-08-05T16:46:06.939Z,36.20
2022-08-05T16:48:41.324Z,36.30
2022-08-05T16:51:10.975Z,36.70
2022-08-05T16:54:02.786Z,36.70
2022-08-05T16:56:30.056Z,36.70
2022-08-05T16:59:00.934Z,36.80
2022-08-05T17:01:52.895Z,36.40
2022-08-05T17:04:26.726Z,36.20
2022-08-05T17:06:56.939Z,35.40
2022-08-05T17:09:29.564Z,35.40
2022-08-05T17:11:59.891Z,35.10
2022-08-05T17:14:37.613Z,35.50
2022-08-05T17:17:09.400Z,36.10
2022-08-05T17:19:46.079Z,35.60
2022-08-05T17:22:21.986Z,35.00
2022-08-05T17:24:58.045Z,34.90
2022-08-05T17:27:34.332Z,34.80
2022-08-05T17:30:11.848Z,34.80
2022-08-05T17:32:47.073Z,35.10
2022-08-05T17:35:20.578Z,34.40
2022-08-05T17:37:50.453Z,35.20
2022-08-05T17:40:22.403Z,35.30
2022-08-05T17:42:52.158Z,35.60
2022-08-05T17:45:29.635Z,35.90
2022-08-05T17:48:07.938Z,36.00
2022-08-05T17:50:36.542Z,36.10
2022-08-05T17:53:08.494Z,36.10
2022-08-05T17:55:39.619Z,36.50
2022-08-05T17:58:13.633Z,36.60
2022-08-05T18:00:47.556Z,36.60
2022-08-05T18:06:11.189Z,37.00
2022-08-05T18:08:44.614Z,37.10
2022-08-05T18:11:23.685Z,37.40
2022-08-05T18:13:53.263Z,37.60
2022-08-05T18:16:22.672Z,38.00
2022-08-05T18:18:50.925Z,38.10
2022-08-05T18:21:21.314Z,38.20
2022-08-05T18:23:54.287Z,38.40
2022-08-05T18:26:29.027Z,38.70
2022-08-05T18:28:58.706Z,38.90
2022-08-05T18:31:32.943Z,39.30
2022-08-05T18:34:02.232Z,39.50
2022-08-05T18:36:30.291Z,39.40
2022-08-05T18:38:58.407Z,39.60
2022-08-05T18:41:55.933Z,39.60
2022-08-05T18:44:15.519Z,39.60
2022-08-05T18:47:04.805Z,39.70
2022-08-05T18:49:57.828Z,40.00
2022-08-05T18:52:37.934Z,40.10
2022-08-05T18:55:10.679Z,41.10
2022-08-05T18:57:49.935Z,41.50
2022-08-05T19:00:28.440Z,41.60
2022-08-05T19:03:03.552Z,42.20
2022-08-05T19:06:12.425Z,42.20
2022-08-05T19:08:21.803Z,42.40
2022-08-05T19:10:50.556Z,42.60
2022-08-05T19:13:19.784Z,44.00
2022-08-05T19:15:59.879Z,44.40
2022-08-05T19:18:32.927Z,44.70
2022-08-05T19:21:01.536Z,44.90
2022-08-05T19:24:07.990Z,45.30
2022-08-05T19:26:22.386Z,45.60
2022-08-05T19:28:50.619Z,46.40
2022-08-05T19:31:19.571Z,46.80
2022-08-05T19:33:56.672Z,46.90
2022-08-05T19:36:25.996Z,46.50
2022-08-05T19:38:58.880Z,47.00
2022-08-05T19:42:05.478Z,46.80
2022-08-05T19:44:18.806Z,46.40
2022-08-05T19:46:47.419Z,45.60
2022-08-05T19:49:20.111Z,45.80
2022-08-05T19:52:08.545Z,45.50
2022-08-05T19:54:37.410Z,45.70
2022-08-05T19:57:09.455Z,45.80
2022-08-05T20:00:01.302Z,46.00
2022-08-05T20:02:31.419Z,46.50
2022-08-05T20:05:01.254Z,46.50
2022-08-05T20:07:45.796Z,47.00
2022-08-05T20:10:17.467Z,46.90
2022-08-05T20:12:49.373Z,47.60
2022-08-05T20:15:23.302Z,47.50
2022-08-05T20:18:10.990Z,47.80
2022-08-05T20:20:57.774Z,48.00
2022-08-05T20:23:39.780Z,48.40
2022-08-05T20:26:18.086Z,48.70
2022-08-05T20:28:48.479Z,48.60
2022-08-05T20:31:17.274Z,48.60
2022-08-05T20:33:45.843Z,49.40
2022-08-05T20:36:18.082Z,49.80
2022-08-05T20:38:54.186Z,49.40
2022-08-05T21:14:59.596Z,51.60
2022-08-05T21:17:28.410Z,51.70
2022-08-05T21:19:57.278Z,52.00
2022-08-05T21:22:27.285Z,52.20
2022-08-05T21:24:56.659Z,52.40
2022-08-05T21:27:27.513Z,52.70
2022-08-05T21:29:56.715Z,52.50
2022-08-05T21:32:27.643Z,52.70
2022-08-05T21:35:16.643Z,52.80
2022-08-05T21:37:53.096Z,52.80
2022-08-05T21:40:23.446Z,53.50
2022-08-05T21:42:53.564Z,54.20
2022-08-05T21:45:51.454Z,56.50
2022-08-05T21:48:13.584Z,59.40
2022-08-05T21:50:42.095Z,61.60
2022-08-05T21:53:21.468Z,63.40
2022-08-05T21:56:04.848Z,65.60
2022-08-05T21:58:42.051Z,67.70
2022-08-05T22:01:11.212Z,71.00
2022-08-05T22:03:54.014Z,71.40
2022-08-05T22:06:35.492Z,72.00
2022-08-05T22:09:14.017Z,72.50
2022-08-05T22:11:47.129Z,74.00
2022-08-05T22:14:35.140Z,74.90
2022-08-05T22:17:06.577Z,76.60
2022-08-05T22:20:02.911Z,77.10
2022-08-05T22:22:28.011Z,78.10
2022-08-05T22:25:18.034Z,78.90
2022-08-05T22:28:04.873Z,79.60
2022-08-05T22:30:55.531Z,80.40
2022-08-05T22:33:57.944Z,81.90
2022-08-05T22:36:18.293Z,82.70
2022-08-05T22:38:48.245Z,84.10
2022-08-05T22:41:26.493Z,85.90
2022-08-05T22:44:07.978Z,86.00
2022-08-05T22:46:40.236Z,87.20
2022-08-05T22:49:12.042Z,89.20
2022-08-05T22:52:07.293Z,90.50
2022-08-05T22:54:41.048Z,91.90
2022-08-05T22:57:16.996Z,93.40
2022-08-05T22:59:53.819Z,94.20
2022-08-05T23:02:29.402Z,94.00
2022-08-05T23:04:58.365Z,94.60
2022-08-05T23:07:31.750Z,95.10
2022-08-05T23:10:01.513Z,95.50
2022-08-05T23:12:32.482Z,95.30
2022-08-05T23:15:03.483Z,95.50
2022-08-05T23:17:37.565Z,95.40
2022-08-05T23:20:20.917Z,95.70
2022-08-05T23:22:55.958Z,96.20
2022-08-05T23:25:52.295Z,96.10
2022-08-05T23:28:15.828Z,96.20
2022-08-05T23:30:53.425Z,96.60
2022-08-05T23:33:26.119Z,96.70
2022-08-05T23:36:13.465Z,97.00
2022-08-05T23:38:43.759Z,97.40
2022-08-05T23:41:12.791Z,97.50
2022-08-05T23:44:05.941Z,97.70
2022-08-05T23:46:29.757Z,97.40
2022-08-05T23:48:59.848Z,96.50
2022-08-05T23:51:53.901Z,96.90
2022-08-05T23:54:26.454Z,97.10
2022-08-05T23:57:03.432Z,96.80
